sensor_id;sensor_type;location;lat;lon;timestamp;P1;durP1;ratioP1;P2;durP2;ratioP2
64873;SDS011;51367;45.204;38.576;2024-03-07T00:00:05;5.72;;;5.18;;
64873;SDS011;51367;45.204;38.576;2024-03-07T00:02:40;5.93;;;5.38;;
64873;SDS011;51367;45.204;38.576;2024-03-07T00:05:08;5.03;;;4.65;;
64873;SDS011;51367;45.204;38.576;2024-03-07T00:07:34;2.13;;;1.92;;
64873;SDS011;51367;45.204;38.576;2024-03-07T00:10:01;20.30;;;5.45;;
64873;SDS011;51367;45.204;38.576;2024-03-07T00:12:28;6.38;;;4.30;;
64873;SDS011;51367;45.204;38.576;2024-03-07T00:14:55;2.60;;;2.40;;
64873;SDS011;51367;45.204;38.576;2024-03-07T00:17:21;4.57;;;3.97;;
64873;SDS011;51367;45.204;38.576;2024-03-07T00:19:48;4.80;;;4.28;;
64873;SDS011;51367;45.204;38.576;2024-03-07T00:22:14;7.25;;;5.90;;
64873;SDS011;51367;45.204;38.576;2024-03-07T00:24:41;2.72;;;2.50;;
64873;SDS011;51367;45.204;38.576;2024-03-07T00:27:08;6.82;;;4.43;;
64873;SDS011;51367;45.204;38.576;2024-03-07T00:29:34;7.25;;;1.75;;
64873;SDS011;51367;45.204;38.576;2024-03-07T00:32:03;1.77;;;1.67;;
64873;SDS011;51367;45.204;38.576;2024-03-07T00:34:30;1.92;;;1.58;;
64873;SDS011;51367;45.204;38.576;2024-03-07T00:36:56;3.17;;;2.53;;
64873;SDS011;51367;45.204;38.576;2024-03-07T00:39:24;1.25;;;1.20;;
64873;SDS011;51367;45.204;38.576;2024-03-07T00:41:53;24.35;;;3.38;;
64873;SDS011;51367;45.204;38.576;2024-03-07T00:44:19;2.25;;;1.83;;
64873;SDS011;51367;45.204;38.576;2024-03-07T00:46:45;4.03;;;3.72;;
64873;SDS011;51367;45.204;38.576;2024-03-07T00:49:11;1.60;;;1.50;;
64873;SDS011;51367;45.204;38.576;2024-03-07T00:51:37;4.22;;;2.08;;
64873;SDS011;51367;45.204;38.576;2024-03-07T00:54:04;2.05;;;1.73;;
64873;SDS011;51367;45.204;38.576;2024-03-07T00:56:31;2.03;;;1.83;;
64873;SDS011;51367;45.204;38.576;2024-03-07T00:58:57;4.20;;;1.73;;
64873;SDS011;51367;45.204;38.576;2024-03-07T01:01:23;2.00;;;1.85;;
64873;SDS011;51367;45.204;38.576;2024-03-07T01:03:49;4.43;;;2.05;;
64873;SDS011;51367;45.204;38.576;2024-03-07T01:06:15;1.58;;;1.48;;
64873;SDS011;51367;45.204;38.576;2024-03-07T01:08:41;1.75;;;1.65;;
64873;SDS011;51367;45.204;38.576;2024-03-07T01:11:07;2.65;;;1.67;;
64873;SDS011;51367;45.204;38.576;2024-03-07T01:13:40;2.05;;;1.00;;
64873;SDS011;51367;45.204;38.576;2024-03-07T01:16:07;0.80;;;0.80;;
64873;SDS011;51367;45.204;38.576;2024-03-07T01:18:33;1.00;;;0.95;;
64873;SDS011;51367;45.204;38.576;2024-03-07T01:21:03;1.45;;;1.35;;
64873;SDS011;51367;45.204;38.576;2024-03-07T01:23:30;2.60;;;1.23;;
64873;SDS011;51367;45.204;38.576;2024-03-07T01:25:57;0.80;;;0.80;;
64873;SDS011;51367;45.204;38.576;2024-03-07T01:28:24;2.28;;;2.08;;
64873;SDS011;51367;45.204;38.576;2024-03-07T01:30:52;5.28;;;2.85;;
64873;SDS011;51367;45.204;38.576;2024-03-07T01:33:21;1.85;;;1.23;;
64873;SDS011;51367;45.204;38.576;2024-03-07T01:35:47;0.90;;;0.90;;
64873;SDS011;51367;45.204;38.576;2024-03-07T01:38:14;4.00;;;3.63;;
64873;SDS011;51367;45.204;38.576;2024-03-07T01:40:40;0.88;;;0.88;;
64873;SDS011;51367;45.204;38.576;2024-03-07T01:43:07;1.67;;;1.58;;
64873;SDS011;51367;45.204;38.576;2024-03-07T01:45:34;2.15;;;1.95;;
64873;SDS011;51367;45.204;38.576;2024-03-07T01:48:06;0.95;;;0.95;;
64873;SDS011;51367;45.204;38.576;2024-03-07T01:50:36;18.67;;;2.42;;
64873;SDS011;51367;45.204;38.576;2024-03-07T01:53:06;1.80;;;1.70;;
64873;SDS011;51367;45.204;38.576;2024-03-07T01:55:35;2.42;;;2.05;;
64873;SDS011;51367;45.204;38.576;2024-03-07T01:58:02;2.22;;;2.03;;
64873;SDS011;51367;45.204;38.576;2024-03-07T02:00:30;1.20;;;1.10;;
64873;SDS011;51367;45.204;38.576;2024-03-07T02:02:56;3.88;;;1.42;;
64873;SDS011;51367;45.204;38.576;2024-03-07T02:05:23;2.13;;;1.92;;
64873;SDS011;51367;45.204;38.576;2024-03-07T02:07:50;1.45;;;1.35;;
64873;SDS011;51367;45.204;38.576;2024-03-07T02:10:16;1.63;;;1.52;;
64873;SDS011;51367;45.204;38.576;2024-03-07T02:12:43;0.98;;;0.98;;
64873;SDS011;51367;45.204;38.576;2024-03-07T02:15:10;2.00;;;1.88;;
64873;SDS011;51367;45.204;38.576;2024-03-07T02:17:39;0.40;;;0.40;;
64873;SDS011;51367;45.204;38.576;2024-03-07T02:20:05;1.60;;;1.50;;
64873;SDS011;51367;45.204;38.576;2024-03-07T02:22:33;0.98;;;0.98;;
64873;SDS011;51367;45.204;38.576;2024-03-07T02:24:59;0.88;;;0.85;;
64873;SDS011;51367;45.204;38.576;2024-03-07T02:27:25;1.20;;;1.10;;
64873;SDS011;51367;45.204;38.576;2024-03-07T02:29:51;1.02;;;1.00;;
64873;SDS011;51367;45.204;38.576;2024-03-07T02:32:17;1.10;;;1.10;;
64873;SDS011;51367;45.204;38.576;2024-03-07T02:34:43;3.05;;;2.28;;
64873;SDS011;51367;45.204;38.576;2024-03-07T02:37:09;2.03;;;1.92;;
64873;SDS011;51367;45.204;38.576;2024-03-07T02:39:36;1.13;;;1.02;;
64873;SDS011;51367;45.204;38.576;2024-03-07T02:42:02;1.70;;;1.60;;
64873;SDS011;51367;45.204;38.576;2024-03-07T02:44:28;0.73;;;0.73;;
64873;SDS011;51367;45.204;38.576;2024-03-07T02:46:55;0.90;;;0.90;;
64873;SDS011;51367;45.204;38.576;2024-03-07T02:49:21;1.33;;;1.27;;
64873;SDS011;51367;45.204;38.576;2024-03-07T02:51:47;1.77;;;1.27;;
64873;SDS011;51367;45.204;38.576;2024-03-07T02:54:14;2.03;;;1.92;;
64873;SDS011;51367;45.204;38.576;2024-03-07T02:56:40;1.73;;;1.52;;
64873;SDS011;51367;45.204;38.576;2024-03-07T02:59:06;0.65;;;0.65;;
64873;SDS011;51367;45.204;38.576;2024-03-07T03:01:32;2.47;;;2.28;;
64873;SDS011;51367;45.204;38.576;2024-03-07T03:03:58;0.73;;;0.73;;
64873;SDS011;51367;45.204;38.576;2024-03-07T03:06:24;0.93;;;0.93;;
64873;SDS011;51367;45.204;38.576;2024-03-07T03:08:50;0.55;;;0.55;;
64873;SDS011;51367;45.204;38.576;2024-03-07T03:11:20;2.28;;;1.45;;
64873;SDS011;51367;45.204;38.576;2024-03-07T03:13:46;1.90;;;1.55;;
64873;SDS011;51367;45.204;38.576;2024-03-07T03:16:14;0.80;;;0.80;;
64873;SDS011;51367;45.204;38.576;2024-03-07T03:18:40;0.88;;;0.88;;
64873;SDS011;51367;45.204;38.576;2024-03-07T03:21:06;0.95;;;0.95;;
64873;SDS011;51367;45.204;38.576;2024-03-07T03:23:32;4.90;;;1.38;;
64873;SDS011;51367;45.204;38.576;2024-03-07T03:26:00;1.27;;;1.27;;
64873;SDS011;51367;45.204;38.576;2024-03-07T03:28:26;1.33;;;1.23;;
64873;SDS011;51367;45.204;38.576;2024-03-07T03:30:52;2.25;;;1.73;;
64873;SDS011;51367;45.204;38.576;2024-03-07T03:33:18;0.80;;;0.80;;
64873;SDS011;51367;45.204;38.576;2024-03-07T03:35:46;3.25;;;2.35;;
64873;SDS011;51367;45.204;38.576;2024-03-07T03:38:12;1.80;;;1.42;;
64873;SDS011;51367;45.204;38.576;2024-03-07T03:40:38;1.27;;;0.80;;
64873;SDS011;51367;45.204;38.576;2024-03-07T03:43:05;3.60;;;2.08;;
64873;SDS011;51367;45.204;38.576;2024-03-07T03:45:31;2.00;;;1.90;;
64873;SDS011;51367;45.204;38.576;2024-03-07T03:47:59;1.13;;;1.10;;
64873;SDS011;51367;45.204;38.576;2024-03-07T03:50:25;2.65;;;1.83;;
64873;SDS011;51367;45.204;38.576;2024-03-07T03:52:51;1.58;;;1.38;;
64873;SDS011;51367;45.204;38.576;2024-03-07T03:55:17;2.20;;;1.77;;
64873;SDS011;51367;45.204;38.576;2024-03-07T03:57:44;1.85;;;1.75;;
64873;SDS011;51367;45.204;38.576;2024-03-07T04:00:14;2.10;;;1.00;;
64873;SDS011;51367;45.204;38.576;2024-03-07T04:02:40;0.95;;;0.93;;
64873;SDS011;51367;45.204;38.576;2024-03-07T04:05:08;2.25;;;1.40;;
64873;SDS011;51367;45.204;38.576;2024-03-07T04:07:38;3.60;;;1.35;;
64873;SDS011;51367;45.204;38.576;2024-03-07T04:10:07;3.60;;;2.47;;
64873;SDS011;51367;45.204;38.576;2024-03-07T04:12:34;3.83;;;2.05;;
64873;SDS011;51367;45.204;38.576;2024-03-07T04:15:01;0.82;;;0.60;;
64873;SDS011;51367;45.204;38.576;2024-03-07T04:17:29;3.90;;;0.95;;
64873;SDS011;51367;45.204;38.576;2024-03-07T04:19:56;0.73;;;0.73;;
64873;SDS011;51367;45.204;38.576;2024-03-07T04:22:24;2.13;;;1.33;;
64873;SDS011;51367;45.204;38.576;2024-03-07T04:24:50;1.33;;;1.23;;
64873;SDS011;51367;45.204;38.576;2024-03-07T04:27:19;8.27;;;2.25;;
64873;SDS011;51367;45.204;38.576;2024-03-07T04:29:46;1.75;;;1.65;;
64873;SDS011;51367;45.204;38.576;2024-03-07T04:32:13;1.50;;;1.40;;
64873;SDS011;51367;45.204;38.576;2024-03-07T04:34:39;2.05;;;1.95;;
64873;SDS011;51367;45.204;38.576;2024-03-07T04:37:05;3.50;;;2.95;;
64873;SDS011;51367;45.204;38.576;2024-03-07T04:39:31;1.45;;;1.35;;
64873;SDS011;51367;45.204;38.576;2024-03-07T04:42:04;4.20;;;2.17;;
64873;SDS011;51367;45.204;38.576;2024-03-07T04:44:37;1.48;;;1.38;;
64873;SDS011;51367;45.204;38.576;2024-03-07T04:47:04;4.22;;;2.63;;
64873;SDS011;51367;45.204;38.576;2024-03-07T04:49:32;2.90;;;2.38;;
64873;SDS011;51367;45.204;38.576;2024-03-07T04:51:59;4.03;;;1.50;;
64873;SDS011;51367;45.204;38.576;2024-03-07T04:54:27;1.60;;;1.50;;
64873;SDS011;51367;45.204;38.576;2024-03-07T04:56:54;9.13;;;2.35;;
64873;SDS011;51367;45.204;38.576;2024-03-07T04:59:20;3.28;;;1.33;;
64873;SDS011;51367;45.204;38.576;2024-03-07T05:01:47;2.42;;;1.30;;
64873;SDS011;51367;45.204;38.576;2024-03-07T05:04:15;1.45;;;1.35;;
64873;SDS011;51367;45.204;38.576;2024-03-07T05:06:42;2.13;;;2.03;;
64873;SDS011;51367;45.204;38.576;2024-03-07T05:09:09;1.77;;;1.67;;
64873;SDS011;51367;45.204;38.576;2024-03-07T05:11:48;5.00;;;2.63;;
64873;SDS011;51367;45.204;38.576;2024-03-07T05:14:18;4.18;;;3.88;;
64873;SDS011;51367;45.204;38.576;2024-03-07T05:16:45;2.25;;;1.25;;
64873;SDS011;51367;45.204;38.576;2024-03-07T05:19:11;4.40;;;1.40;;
64873;SDS011;51367;45.204;38.576;2024-03-07T05:21:37;2.55;;;0.90;;
64873;SDS011;51367;45.204;38.576;2024-03-07T05:24:04;0.70;;;0.70;;
64873;SDS011;51367;45.204;38.576;2024-03-07T05:26:31;1.20;;;1.10;;
64873;SDS011;51367;45.204;38.576;2024-03-07T05:29:03;2.22;;;1.85;;
64873;SDS011;51367;45.204;38.576;2024-03-07T05:31:39;3.50;;;3.05;;
64873;SDS011;51367;45.204;38.576;2024-03-07T05:34:17;1.48;;;1.38;;
64873;SDS011;51367;45.204;38.576;2024-03-07T05:36:48;0.65;;;0.65;;
64873;SDS011;51367;45.204;38.576;2024-03-07T05:39:15;0.60;;;0.60;;
64873;SDS011;51367;45.204;38.576;2024-03-07T05:41:43;2.40;;;1.90;;
64873;SDS011;51367;45.204;38.576;2024-03-07T05:44:10;1.08;;;1.05;;
64873;SDS011;51367;45.204;38.576;2024-03-07T05:46:41;1.17;;;1.17;;
64873;SDS011;51367;45.204;38.576;2024-03-07T05:49:11;1.50;;;1.35;;
64873;SDS011;51367;45.204;38.576;2024-03-07T05:51:38;4.80;;;2.38;;
64873;SDS011;51367;45.204;38.576;2024-03-07T05:54:04;2.00;;;1.80;;
64873;SDS011;51367;45.204;38.576;2024-03-07T05:56:34;7.18;;;2.78;;
64873;SDS011;51367;45.204;38.576;2024-03-07T05:59:03;44.05;;;2.35;;
64873;SDS011;51367;45.204;38.576;2024-03-07T06:01:30;4.60;;;2.60;;
64873;SDS011;51367;45.204;38.576;2024-03-07T06:04:04;2.08;;;1.42;;
64873;SDS011;51367;45.204;38.576;2024-03-07T06:06:35;3.38;;;2.55;;
64873;SDS011;51367;45.204;38.576;2024-03-07T06:09:03;1.50;;;1.13;;
64873;SDS011;51367;45.204;38.576;2024-03-07T06:11:37;3.90;;;3.60;;
64873;SDS011;51367;45.204;38.576;2024-03-07T06:14:04;2.78;;;1.95;;
64873;SDS011;51367;45.204;38.576;2024-03-07T06:16:40;2.40;;;2.20;;
64873;SDS011;51367;45.204;38.576;2024-03-07T06:19:07;2.53;;;2.33;;
64873;SDS011;51367;45.204;38.576;2024-03-07T06:21:34;2.10;;;1.73;;
64873;SDS011;51367;45.204;38.576;2024-03-07T06:24:05;3.20;;;2.50;;
64873;SDS011;51367;45.204;38.576;2024-03-07T06:26:34;2.33;;;2.15;;
64873;SDS011;51367;45.204;38.576;2024-03-07T06:29:07;1.33;;;1.23;;
64873;SDS011;51367;45.204;38.576;2024-03-07T06:31:39;2.13;;;2.03;;
64873;SDS011;51367;45.204;38.576;2024-03-07T06:34:08;1.20;;;1.20;;
64873;SDS011;51367;45.204;38.576;2024-03-07T06:36:35;1.00;;;0.98;;
64873;SDS011;51367;45.204;38.576;2024-03-07T06:39:01;0.95;;;0.95;;
64873;SDS011;51367;45.204;38.576;2024-03-07T06:41:32;1.60;;;1.50;;
64873;SDS011;51367;45.204;38.576;2024-03-07T06:44:01;1.00;;;1.00;;
64873;SDS011;51367;45.204;38.576;2024-03-07T06:46:28;3.25;;;3.03;;
64873;SDS011;51367;45.204;38.576;2024-03-07T06:48:55;1.58;;;1.35;;
64873;SDS011;51367;45.204;38.576;2024-03-07T06:51:24;4.07;;;3.58;;
64873;SDS011;51367;45.204;38.576;2024-03-07T06:53:50;9.13;;;1.85;;
64873;SDS011;51367;45.204;38.576;2024-03-07T06:56:16;5.05;;;1.27;;
64873;SDS011;51367;45.204;38.576;2024-03-07T06:58:43;2.83;;;2.63;;
64873;SDS011;51367;45.204;38.576;2024-03-07T07:01:13;6.55;;;2.45;;
64873;SDS011;51367;45.204;38.576;2024-03-07T07:03:41;0.80;;;0.80;;
64873;SDS011;51367;45.204;38.576;2024-03-07T07:06:11;2.33;;;2.13;;
64873;SDS011;51367;45.204;38.576;2024-03-07T07:08:37;4.45;;;2.88;;
64873;SDS011;51367;45.204;38.576;2024-03-07T07:11:03;5.25;;;3.67;;
64873;SDS011;51367;45.204;38.576;2024-03-07T07:13:30;2.60;;;1.90;;
64873;SDS011;51367;45.204;38.576;2024-03-07T07:15:57;2.55;;;2.13;;
64873;SDS011;51367;45.204;38.576;2024-03-07T07:18:23;1.98;;;1.88;;
64873;SDS011;51367;45.204;38.576;2024-03-07T07:20:49;5.68;;;4.97;;
64873;SDS011;51367;45.204;38.576;2024-03-07T07:23:17;2.22;;;2.10;;
64873;SDS011;51367;45.204;38.576;2024-03-07T07:25:45;1.95;;;1.85;;
64873;SDS011;51367;45.204;38.576;2024-03-07T07:28:11;2.75;;;2.55;;
64873;SDS011;51367;45.204;38.576;2024-03-07T07:30:38;5.55;;;5.00;;
64873;SDS011;51367;45.204;38.576;2024-03-07T07:33:05;2.97;;;2.78;;
64873;SDS011;51367;45.204;38.576;2024-03-07T07:35:31;3.53;;;3.22;;
64873;SDS011;51367;45.204;38.576;2024-03-07T07:37:58;3.83;;;3.42;;
64873;SDS011;51367;45.204;38.576;2024-03-07T07:40:25;2.42;;;2.22;;
64873;SDS011;51367;45.204;38.576;2024-03-07T07:42:53;3.00;;;2.70;;
64873;SDS011;51367;45.204;38.576;2024-03-07T07:45:20;2.58;;;2.33;;
64873;SDS011;51367;45.204;38.576;2024-03-07T07:47:48;2.85;;;2.65;;
64873;SDS011;51367;45.204;38.576;2024-03-07T07:50:16;3.90;;;2.42;;
64873;SDS011;51367;45.204;38.576;2024-03-07T07:55:13;4.97;;;4.57;;
64873;SDS011;51367;45.204;38.576;2024-03-07T07:57:43;4.28;;;3.65;;
64873;SDS011;51367;45.204;38.576;2024-03-07T08:00:11;1.70;;;1.60;;
64873;SDS011;51367;45.204;38.576;2024-03-07T08:05:15;2.58;;;2.38;;
64873;SDS011;51367;45.204;38.576;2024-03-07T08:07:44;2.05;;;1.88;;
64873;SDS011;51367;45.204;38.576;2024-03-07T08:10:11;1.80;;;1.73;;
64873;SDS011;51367;45.204;38.576;2024-03-07T08:12:37;2.65;;;2.45;;
64873;SDS011;51367;45.204;38.576;2024-03-07T08:15:04;2.33;;;2.22;;
64873;SDS011;51367;45.204;38.576;2024-03-07T08:17:30;3.08;;;1.40;;
64873;SDS011;51367;45.204;38.576;2024-03-07T08:19:57;1.20;;;1.20;;
64873;SDS011;51367;45.204;38.576;2024-03-07T08:22:23;3.45;;;3.15;;
64873;SDS011;51367;45.204;38.576;2024-03-07T08:24:50;1.83;;;1.73;;
64873;SDS011;51367;45.204;38.576;2024-03-07T08:27:17;1.40;;;1.40;;
64873;SDS011;51367;45.204;38.576;2024-03-07T08:29:43;8.45;;;6.88;;
64873;SDS011;51367;45.204;38.576;2024-03-07T08:32:09;3.72;;;3.42;;
64873;SDS011;51367;45.204;38.576;2024-03-07T08:34:35;5.15;;;4.75;;
64873;SDS011;51367;45.204;38.576;2024-03-07T08:37:01;2.17;;;2.08;;
64873;SDS011;51367;45.204;38.576;2024-03-07T08:39:30;1.77;;;1.67;;
64873;SDS011;51367;45.204;38.576;2024-03-07T08:41:56;5.25;;;4.85;;
64873;SDS011;51367;45.204;38.576;2024-03-07T08:44:22;1.38;;;1.35;;
64873;SDS011;51367;45.204;38.576;2024-03-07T08:46:48;3.70;;;2.55;;
64873;SDS011;51367;45.204;38.576;2024-03-07T08:49:14;1.98;;;1.85;;
64873;SDS011;51367;45.204;38.576;2024-03-07T08:51:42;8.10;;;5.97;;
64873;SDS011;51367;45.204;38.576;2024-03-07T08:54:09;5.50;;;4.65;;
64873;SDS011;51367;45.204;38.576;2024-03-07T08:56:35;6.40;;;3.75;;
64873;SDS011;51367;45.204;38.576;2024-03-07T08:59:01;3.42;;;3.13;;
64873;SDS011;51367;45.204;38.576;2024-03-07T09:01:27;1.70;;;1.60;;
64873;SDS011;51367;45.204;38.576;2024-03-07T09:03:54;3.05;;;2.55;;
64873;SDS011;51367;45.204;38.576;2024-03-07T09:06:20;7.00;;;6.10;;
64873;SDS011;51367;45.204;38.576;2024-03-07T09:08:46;6.57;;;5.97;;
64873;SDS011;51367;45.204;38.576;2024-03-07T09:11:12;3.55;;;3.28;;
64873;SDS011;51367;45.204;38.576;2024-03-07T09:13:38;2.53;;;2.33;;
64873;SDS011;51367;45.204;38.576;2024-03-07T09:16:05;2.50;;;2.30;;
64873;SDS011;51367;45.204;38.576;2024-03-07T09:18:31;0.82;;;0.82;;
64873;SDS011;51367;45.204;38.576;2024-03-07T09:20:57;2.10;;;1.90;;
64873;SDS011;51367;45.204;38.576;2024-03-07T09:23:23;5.20;;;3.95;;
64873;SDS011;51367;45.204;38.576;2024-03-07T09:25:49;3.92;;;3.53;;
64873;SDS011;51367;45.204;38.576;2024-03-07T09:28:15;3.75;;;3.45;;
64873;SDS011;51367;45.204;38.576;2024-03-07T09:30:41;6.45;;;5.82;;
64873;SDS011;51367;45.204;38.576;2024-03-07T09:33:07;3.80;;;3.03;;
64873;SDS011;51367;45.204;38.576;2024-03-07T09:35:36;3.65;;;3.35;;
64873;SDS011;51367;45.204;38.576;2024-03-07T09:38:03;2.22;;;2.08;;
64873;SDS011;51367;45.204;38.576;2024-03-07T09:40:29;5.47;;;4.95;;
64873;SDS011;51367;45.204;38.576;2024-03-07T09:42:56;7.18;;;6.28;;
64873;SDS011;51367;45.204;38.576;2024-03-07T09:45:24;5.50;;;4.00;;
64873;SDS011;51367;45.204;38.576;2024-03-07T09:47:54;7.28;;;5.32;;
64873;SDS011;51367;45.204;38.576;2024-03-07T09:50:22;6.15;;;5.65;;
64873;SDS011;51367;45.204;38.576;2024-03-07T09:52:48;7.57;;;6.88;;
64873;SDS011;51367;45.204;38.576;2024-03-07T09:55:15;4.03;;;3.72;;
64873;SDS011;51367;45.204;38.576;2024-03-07T09:57:42;3.50;;;3.28;;
64873;SDS011;51367;45.204;38.576;2024-03-07T10:00:11;12.73;;;6.20;;
64873;SDS011;51367;45.204;38.576;2024-03-07T10:02:45;6.97;;;6.30;;
64873;SDS011;51367;45.204;38.576;2024-03-07T10:05:13;8.63;;;6.75;;
64873;SDS011;51367;45.204;38.576;2024-03-07T10:07:42;4.03;;;3.65;;
64873;SDS011;51367;45.204;38.576;2024-03-07T10:10:08;5.50;;;5.05;;
64873;SDS011;51367;45.204;38.576;2024-03-07T10:12:40;4.68;;;4.28;;
64873;SDS011;51367;45.204;38.576;2024-03-07T10:15:07;6.70;;;6.03;;
64873;SDS011;51367;45.204;38.576;2024-03-07T10:17:41;5.72;;;5.20;;
64873;SDS011;51367;45.204;38.576;2024-03-07T10:20:08;5.13;;;3.38;;
64873;SDS011;51367;45.204;38.576;2024-03-07T10:22:42;6.50;;;6.00;;
64873;SDS011;51367;45.204;38.576;2024-03-07T10:25:07;3.38;;;3.17;;
64873;SDS011;51367;45.204;38.576;2024-03-07T10:27:37;3.75;;;3.33;;
64873;SDS011;51367;45.204;38.576;2024-03-07T10:30:04;5.00;;;3.15;;
64873;SDS011;51367;45.204;38.576;2024-03-07T10:32:33;5.40;;;4.78;;
64873;SDS011;51367;45.204;38.576;2024-03-07T10:34:59;2.30;;;1.67;;
64873;SDS011;51367;45.204;38.576;2024-03-07T10:37:25;5.28;;;3.28;;
64873;SDS011;51367;45.204;38.576;2024-03-07T10:39:51;5.60;;;5.15;;
64873;SDS011;51367;45.204;38.576;2024-03-07T10:42:18;10.02;;;9.05;;
64873;SDS011;51367;45.204;38.576;2024-03-07T10:44:45;5.80;;;4.68;;
64873;SDS011;51367;45.204;38.576;2024-03-07T10:47:19;8.18;;;6.70;;
64873;SDS011;51367;45.204;38.576;2024-03-07T10:52:39;11.55;;;5.38;;
64873;SDS011;51367;45.204;38.576;2024-03-07T10:55:18;3.55;;;2.38;;
64873;SDS011;51367;45.204;38.576;2024-03-07T10:57:55;2.20;;;2.10;;
64873;SDS011;51367;45.204;38.576;2024-03-07T11:00:27;11.32;;;3.85;;
64873;SDS011;51367;45.204;38.576;2024-03-07T11:03:12;7.25;;;5.90;;
64873;SDS011;51367;45.204;38.576;2024-03-07T11:05:40;16.98;;;5.43;;
64873;SDS011;51367;45.204;38.576;2024-03-07T11:08:08;31.73;;;5.47;;
64873;SDS011;51367;45.204;38.576;2024-03-07T11:10:38;4.43;;;3.55;;
64873;SDS011;51367;45.204;38.576;2024-03-07T11:13:09;6.30;;;4.32;;
64873;SDS011;51367;45.204;38.576;2024-03-07T11:18:05;4.90;;;4.45;;
64873;SDS011;51367;45.204;38.576;2024-03-07T11:20:34;4.63;;;4.22;;
64873;SDS011;51367;45.204;38.576;2024-03-07T11:23:24;4.70;;;4.28;;
64873;SDS011;51367;45.204;38.576;2024-03-07T11:26:10;7.18;;;6.18;;
64873;SDS011;51367;45.204;38.576;2024-03-07T11:28:39;3.45;;;3.15;;
64873;SDS011;51367;45.204;38.576;2024-03-07T11:31:13;5.60;;;4.40;;
64873;SDS011;51367;45.204;38.576;2024-03-07T11:33:40;3.85;;;3.50;;
64873;SDS011;51367;45.204;38.576;2024-03-07T11:36:10;4.32;;;4.00;;
64873;SDS011;51367;45.204;38.576;2024-03-07T11:38:49;5.88;;;3.97;;
64873;SDS011;51367;45.204;38.576;2024-03-07T11:41:18;2.85;;;2.65;;
64873;SDS011;51367;45.204;38.576;2024-03-07T11:43:45;2.67;;;2.47;;
64873;SDS011;51367;45.204;38.576;2024-03-07T11:46:12;3.60;;;3.30;;
64873;SDS011;51367;45.204;38.576;2024-03-07T11:48:42;5.90;;;5.30;;
64873;SDS011;51367;45.204;38.576;2024-03-07T11:51:17;4.22;;;3.90;;
64873;SDS011;51367;45.204;38.576;2024-03-07T11:53:43;9.10;;;4.15;;
64873;SDS011;51367;45.204;38.576;2024-03-07T11:56:13;4.93;;;4.53;;
64873;SDS011;51367;45.204;38.576;2024-03-07T11:58:41;3.55;;;3.28;;
64873;SDS011;51367;45.204;38.576;2024-03-07T12:01:10;2.60;;;2.40;;
64873;SDS011;51367;45.204;38.576;2024-03-07T12:03:39;6.32;;;5.72;;
64873;SDS011;51367;45.204;38.576;2024-03-07T12:06:07;5.35;;;4.85;;
64873;SDS011;51367;45.204;38.576;2024-03-07T12:08:37;7.35;;;6.13;;
64873;SDS011;51367;45.204;38.576;2024-03-07T12:11:04;6.03;;;5.50;;
64873;SDS011;51367;45.204;38.576;2024-03-07T12:13:30;1.88;;;1.77;;
64873;SDS011;51367;45.204;38.576;2024-03-07T12:15:58;8.80;;;8.00;;
64873;SDS011;51367;45.204;38.576;2024-03-07T12:18:24;5.18;;;4.03;;
64873;SDS011;51367;45.204;38.576;2024-03-07T12:20:50;7.88;;;7.25;;
64873;SDS011;51367;45.204;38.576;2024-03-07T12:23:19;3.72;;;3.50;;
64873;SDS011;51367;45.204;38.576;2024-03-07T12:25:58;9.52;;;8.60;;
64873;SDS011;51367;45.204;38.576;2024-03-07T12:28:27;3.65;;;3.30;;
64873;SDS011;51367;45.204;38.576;2024-03-07T12:30:58;3.70;;;3.40;;
64873;SDS011;51367;45.204;38.576;2024-03-07T12:33:28;6.40;;;5.55;;
64873;SDS011;51367;45.204;38.576;2024-03-07T12:35:56;6.70;;;6.10;;
64873;SDS011;51367;45.204;38.576;2024-03-07T12:38:31;6.95;;;6.35;;
64873;SDS011;51367;45.204;38.576;2024-03-07T12:41:02;5.60;;;5.03;;
64873;SDS011;51367;45.204;38.576;2024-03-07T12:43:32;5.05;;;4.22;;
64873;SDS011;51367;45.204;38.576;2024-03-07T12:45:59;5.88;;;5.35;;
64873;SDS011;51367;45.204;38.576;2024-03-07T12:48:25;5.43;;;4.95;;
64873;SDS011;51367;45.204;38.576;2024-03-07T12:50:53;7.05;;;6.18;;
64873;SDS011;51367;45.204;38.576;2024-03-07T12:53:19;7.22;;;5.38;;
64873;SDS011;51367;45.204;38.576;2024-03-07T12:55:51;2.78;;;2.58;;
64873;SDS011;51367;45.204;38.576;2024-03-07T12:58:20;3.60;;;3.30;;
64873;SDS011;51367;45.204;38.576;2024-03-07T13:00:54;4.75;;;4.35;;
64873;SDS011;51367;45.204;38.576;2024-03-07T13:03:21;9.30;;;4.90;;
64873;SDS011;51367;45.204;38.576;2024-03-07T13:05:48;8.18;;;5.40;;
64873;SDS011;51367;45.204;38.576;2024-03-07T13:08:14;5.68;;;5.18;;
64873;SDS011;51367;45.204;38.576;2024-03-07T13:10:44;8.80;;;7.00;;
64873;SDS011;51367;45.204;38.576;2024-03-07T13:13:10;5.57;;;5.13;;
64873;SDS011;51367;45.204;38.576;2024-03-07T13:15:37;3.78;;;3.33;;
64873;SDS011;51367;45.204;38.576;2024-03-07T13:18:07;5.50;;;5.00;;
64873;SDS011;51367;45.204;38.576;2024-03-07T13:20:34;2.47;;;2.30;;
64873;SDS011;51367;45.204;38.576;2024-03-07T13:23:01;17.65;;;13.55;;
64873;SDS011;51367;45.204;38.576;2024-03-07T13:25:28;9.25;;;6.65;;
64873;SDS011;51367;45.204;38.576;2024-03-07T13:30:39;5.32;;;4.85;;
64873;SDS011;51367;45.204;38.576;2024-03-07T13:33:09;7.13;;;6.38;;
64873;SDS011;51367;45.204;38.576;2024-03-07T13:35:38;3.85;;;3.30;;
64873;SDS011;51367;45.204;38.576;2024-03-07T13:38:04;5.43;;;4.53;;
64873;SDS011;51367;45.204;38.576;2024-03-07T13:40:32;7.55;;;6.85;;
64873;SDS011;51367;45.204;38.576;2024-03-07T13:43:04;8.85;;;7.88;;
64873;SDS011;51367;45.204;38.576;2024-03-07T13:45:31;8.40;;;7.53;;
64873;SDS011;51367;45.204;38.576;2024-03-07T13:48:05;6.50;;;5.90;;
64873;SDS011;51367;45.204;38.576;2024-03-07T13:50:33;10.18;;;8.50;;
64873;SDS011;51367;45.204;38.576;2024-03-07T13:53:00;3.85;;;3.05;;
64873;SDS011;51367;45.204;38.576;2024-03-07T14:06:14;8.85;;;7.03;;
64873;SDS011;51367;45.204;38.576;2024-03-07T14:23:24;20.70;;;11.23;;
64873;SDS011;51367;45.204;38.576;2024-03-07T14:29:03;9.85;;;8.85;;
64873;SDS011;51367;45.204;38.576;2024-03-07T14:31:39;8.48;;;7.20;;
64873;SDS011;51367;45.204;38.576;2024-03-07T14:36:44;9.40;;;8.57;;
64873;SDS011;51367;45.204;38.576;2024-03-07T14:39:15;8.05;;;7.35;;
64873;SDS011;51367;45.204;38.576;2024-03-07T14:44:17;11.55;;;9.20;;
64873;SDS011;51367;45.204;38.576;2024-03-07T14:46:45;8.45;;;7.65;;
64873;SDS011;51367;45.204;38.576;2024-03-07T14:49:15;4.63;;;4.20;;
64873;SDS011;51367;45.204;38.576;2024-03-07T14:51:43;6.55;;;5.63;;
64873;SDS011;51367;45.204;38.576;2024-03-07T14:54:11;10.23;;;9.05;;
64873;SDS011;51367;45.204;38.576;2024-03-07T14:56:38;12.98;;;9.50;;
64873;SDS011;51367;45.204;38.576;2024-03-07T14:59:04;5.35;;;4.85;;
64873;SDS011;51367;45.204;38.576;2024-03-07T15:01:31;9.80;;;7.93;;
64873;SDS011;51367;45.204;38.576;2024-03-07T15:03:59;2.83;;;2.63;;
64873;SDS011;51367;45.204;38.576;2024-03-07T15:06:32;6.88;;;5.75;;
64873;SDS011;51367;45.204;38.576;2024-03-07T15:09:00;6.53;;;5.72;;
64873;SDS011;51367;45.204;38.576;2024-03-07T15:11:36;4.47;;;4.10;;
64873;SDS011;51367;45.204;38.576;2024-03-07T15:14:03;8.27;;;7.45;;
64873;SDS011;51367;45.204;38.576;2024-03-07T15:16:34;4.43;;;4.03;;
64873;SDS011;51367;45.204;38.576;2024-03-07T15:19:03;8.00;;;7.13;;
64873;SDS011;51367;45.204;38.576;2024-03-07T15:21:29;7.97;;;7.03;;
64873;SDS011;51367;45.204;38.576;2024-03-07T15:23:56;3.55;;;3.15;;